Detalii statie FIRST FARMS FAUREI [00001992]

Toti senzorii

Date Temperatura solului [C]Precipitatii [mm]Voltaj baterie [mV]Leaf Wetness [Min]HC Air temperature [C]HC Relative humidity [%]Punctul de roua [C]
medieminmaxsumaultimatimpmedieminmaxmediemediemin
2018-08-12 11:00:00 26.4 25.9 27 0 7186 29.55 28.63 30.75 37.28 13.1 12.1
2018-08-12 12:00:00 27.6 27.1 28.2 0 7186 30.74 29.54 32.03 31.37 11.5 10
2018-08-12 13:00:00 28.7 28.4 29.2 0 7186 30.91 29.52 32.3 30.89 11.4 11
2018-08-12 14:00:00 29.4 29.2 29.7 0 7186 31.08 29.29 32.1 31.02 11.7 10.7
2018-08-12 15:00:00 29.9 29.7 30.2 0 7186 31.96 31.29 32.77 28.25 11 10.7
2018-08-12 16:00:00 30.3 30.1 30.5 0 7176 32.17 31.82 32.71 27.54 10.7 10.4
2018-08-12 17:00:00 30.5 30.5 30.7 0 7166 31.53 31.13 31.74 28.52 10.7 10.1
2018-08-12 18:00:00 30.6 30.5 30.8 0 7030 30.75 29.98 31.55 30.44 11 10.2
2018-08-12 19:00:00 30.4 30.2 30.6 0 6932 28.6 26.88 30.01 36.61 11.9 11.3
2018-08-12 20:00:00 29.9 29.7 30.3 0 6844 25.3 24.35 26.6 44.69 12.2 12
2018-08-12 21:00:00 29.4 29.2 30 0 6826 23.3 22.55 24.33 51.86 12.6 11.9
2018-08-12 22:00:00 28.8 28.5 29.1 0 6826 21.78 21 22.43 61.3 13.8 13.7
2018-08-12 23:00:00 28.2 27.9 28.5 0 6816 20.3 19.55 21.03 65.82 13.5 13.4
2018-08-13 00:00:00 27.6 27.4 28.1 0 6806 18.48 17.46 19.55 75.11 13.8 13.4
2018-08-13 01:00:00 27.1 26.9 27.5 0 6796 16.9 16.35 17.68 87.25 14.6 14.4
2018-08-13 02:00:00 26.6 26.4 26.9 0 6796 15.8 15.32 16.29 93.72 14.6 14.4
2018-08-13 03:00:00 26.1 25.9 26.3 0 6786 15.19 15.04 15.34 99.29 14.9 14.7
2018-08-13 04:00:00 25.6 25.4 25.9 0 6786 14.74 14.25 15.13 99.91 14.6 14.2
2018-08-13 05:00:00 25.2 25 25.5 0 6776 14.62 14.16 15.1 100 14.5 14.1
2018-08-13 06:00:00 24.9 24.7 25.1 0 6796 14.7 13.97 16.18 99.48 14.5 13.9
2018-08-13 07:00:00 24.5 24.4 24.7 0 6932 17.89 16.68 19.49 84.74 15.1 14.5
2018-08-13 08:00:00 24.4 24.4 24.6 0 7186 21.57 20.02 23.39 68.97 15.3 14.8
2018-08-13 09:00:00 24.8 24.5 25.2 0 7186 26.02 23.81 27.6 49.01 14.2 14
2018-08-13 10:00:00 25.7 25.3 26.4 0 7186 28.35 27.08 29.81 41.89 13.8 13.3
2018-08-13 11:00:00 26.9 26.3 27.5 0 7186 30.7 28.99 31.93 35.54 13.5 13.1
2018-08-13 12:00:00 28.1 27.6 28.6 0 7176 31.56 30.38 32.81 31.67 12.3 11.2
2018-08-13 13:00:00 29.2 28.8 29.7 0 7186 31.98 30.66 32.78 27.88 10.8 10
2018-08-13 14:00:00 29.8 29.6 30.3 0 7186 32.19 31.26 33.27 27.43 10.6 10
2018-08-13 15:00:00 30.4 30.1 30.7 0 7176 33.1 32.47 34.31 24.38 9.7 9.4
2018-08-13 16:00:00 30.8 30.7 31 0 7148 32.93 32.39 33.36 24.21 9.4 8.8
2018-08-13 17:00:00 31 30.8 31.2 0 7158 32.75 32.39 33.28 24.53 9.4 8.7
2018-08-13 18:00:00 30.9 30.8 31.1 0 7166 31.79 31.34 32.16 26.64 10 9.3
2018-08-13 19:00:00 30.7 30.5 31 0 6894 29.42 27.73 31.16 31.5 10.5 9.3
2018-08-13 20:00:00 30.3 30 30.6 0 6844 25.67 23.65 27.31 37.83 9.9 9.6
2018-08-13 21:00:00 29.7 29.4 30 0 6826 23.6 23.15 24 41.21 9.4 9.1
2018-08-13 22:00:00 29 28.7 29.5 0 6826 22.38 21.24 22.97 43.69 9.2 9
2018-08-13 23:00:00 28.4 28.1 28.8 0 6816 20.38 19.6 21.04 51.08 9.7 9.5
2018-08-14 00:00:00 27.8 27.6 28.1 0 6816 18.31 17.17 19.32 59.84 10.1 9.9
2018-08-14 01:00:00 27.3 27 27.5 0 6796 16.62 14.57 18.1 68.39 10.5 10.2
2018-08-14 02:00:00 26.7 26.4 27 0 6796 15.53 15.25 15.96 77.98 11.5 11.1
2018-08-14 03:00:00 26.2 25.8 26.5 0 6766 15.05 14.42 15.85 80.4 11.5 11.1
2018-08-14 04:00:00 25.7 25.4 25.9 0 6776 14.59 14.12 14.96 81.23 11.3 11
2018-08-14 05:00:00 25.2 24.9 25.5 0 6786 13.01 12.1 14.08 92.37 11.6 10.8
2018-08-14 06:00:00 24.7 24.5 25.1 0 6786 13.95 12.67 14.99 90.17 12.2 11.8
2018-08-14 07:00:00 24.4 24.2 24.7 0 6922 16.87 15.32 18.98 75.61 12.3 12
2018-08-14 08:00:00 24.2 24.1 24.5 0 7186 21.65 19.38 23.11 56.57 12.3 11
2018-08-14 09:00:00 24.7 24.4 25.1 0 7186 25.49 23.96 27.56 42.81 11.6 10.7